createdAt,value
2022-11-14T00:01:34.891Z,10.6
2022-11-14T00:04:36.860Z,10.9
2022-11-14T00:07:38.851Z,11.6
2022-11-14T00:10:40.777Z,10.4
2022-11-14T00:13:42.817Z,10
2022-11-14T00:16:44.748Z,10.6
2022-11-14T00:19:46.718Z,11.1
2022-11-14T00:22:48.669Z,10.4
2022-11-14T00:25:50.624Z,10.5
2022-11-14T00:28:52.583Z,10.3
2022-11-14T00:31:54.538Z,10.4
2022-11-14T00:34:56.502Z,10.1
2022-11-14T00:37:58.479Z,10
2022-11-14T00:41:00.436Z,8.8
2022-11-14T00:44:02.393Z,9.6
2022-11-14T00:47:04.354Z,9.5
2022-11-14T00:50:06.334Z,8.9
2022-11-14T00:53:08.272Z,8.9
2022-11-14T00:56:10.246Z,9.2
2022-11-14T00:59:12.208Z,8.7
2022-11-14T01:02:14.171Z,8.4
2022-11-14T01:05:16.135Z,8.9
2022-11-14T01:08:18.105Z,8.3
2022-11-14T01:11:20.070Z,8.8
2022-11-14T01:14:22.028Z,7.8
2022-11-14T01:17:23.988Z,8.4
2022-11-14T01:20:26.007Z,9.5
2022-11-14T01:23:27.907Z,8.4
2022-11-14T01:26:29.868Z,8.9
2022-11-14T01:29:31.826Z,8.5
2022-11-14T01:32:33.804Z,8.5
2022-11-14T01:35:35.764Z,8.4
2022-11-14T01:38:37.698Z,8.2
2022-11-14T01:41:39.679Z,9.4
2022-11-14T01:44:41.649Z,8.5
2022-11-14T01:47:43.605Z,8.8
2022-11-14T01:50:45.604Z,8.7
2022-11-14T01:53:47.551Z,8.8
2022-11-14T01:56:49.504Z,7.8
2022-11-14T01:59:51.481Z,8.4
2022-11-14T02:02:53.424Z,8.8
2022-11-14T02:05:55.395Z,8.5
2022-11-14T02:08:57.344Z,8.7
2022-11-14T02:11:59.314Z,9
2022-11-14T02:15:01.301Z,8.5
2022-11-14T02:18:03.246Z,8.1
2022-11-14T02:21:05.218Z,9.1
2022-11-14T02:24:07.173Z,8.6
2022-11-14T02:27:09.142Z,8.8
2022-11-14T02:30:11.121Z,8.2
2022-11-14T02:33:13.069Z,8.7
2022-11-14T02:36:15.062Z,8.3
2022-11-14T02:39:17.004Z,7.7
2022-11-14T02:42:19.002Z,8.5
2022-11-14T02:45:21.005Z,8.1
2022-11-14T02:48:22.907Z,8.2
2022-11-14T02:51:24.875Z,8.3
2022-11-14T02:54:26.843Z,8.8
2022-11-14T02:57:28.801Z,8
2022-11-14T03:00:30.805Z,8.4
2022-11-14T03:03:32.725Z,7.7
2022-11-14T03:06:34.711Z,7.9
2022-11-14T03:09:36.662Z,8.1
2022-11-14T03:12:38.616Z,7.8
2022-11-14T03:15:40.588Z,7.4
2022-11-14T03:18:42.541Z,8
2022-11-14T03:21:44.507Z,6.8
2022-11-14T03:24:46.468Z,7.8
2022-11-14T03:27:48.423Z,7.7
2022-11-14T03:30:50.400Z,8.6
2022-11-14T03:33:52.354Z,7.8
2022-11-14T03:36:54.332Z,7.5
2022-11-14T03:39:56.296Z,7
2022-11-14T03:42:58.266Z,7.7
2022-11-14T03:46:00.238Z,8.2
2022-11-14T03:49:02.178Z,7.9
2022-11-14T03:52:04.132Z,8
2022-11-14T03:55:06.101Z,7.9
2022-11-14T03:58:08.060Z,7.4
2022-11-14T04:01:10.068Z,7.9
2022-11-14T04:04:11.986Z,7.1
2022-11-14T04:07:14.037Z,7.2
2022-11-14T04:10:15.896Z,7.2
2022-11-14T04:13:17.874Z,6.4
2022-11-14T04:16:19.833Z,6.8
2022-11-14T04:19:21.802Z,7
2022-11-14T04:22:23.763Z,7.2
2022-11-14T04:25:25.729Z,6.9
2022-11-14T04:28:27.975Z,6.3
2022-11-14T04:31:29.677Z,6.7
2022-11-14T04:34:31.634Z,7
2022-11-14T04:37:33.596Z,6.4
2022-11-14T04:40:35.558Z,6.8
2022-11-14T04:43:37.519Z,6.8
2022-11-14T04:46:39.476Z,6.5
2022-11-14T04:49:41.442Z,7.1
2022-11-14T04:52:43.396Z,7.2
2022-11-14T04:55:45.363Z,7.2
2022-11-14T04:58:47.329Z,7
2022-11-14T05:01:49.444Z,6.5
2022-11-14T05:04:51.263Z,6.7
2022-11-14T05:07:53.216Z,6.7
2022-11-14T05:10:55.183Z,7
2022-11-14T05:13:57.158Z,6.2
2022-11-14T05:16:59.154Z,7.3
2022-11-14T05:20:01.106Z,7.6
2022-11-14T05:23:03.085Z,7.2
2022-11-14T05:26:05.040Z,6.7
2022-11-14T05:29:06.989Z,7.2
2022-11-14T05:32:12.385Z,7.3
2022-11-14T05:35:10.935Z,7.5
2022-11-14T05:38:12.898Z,6.9
2022-11-14T05:41:14.858Z,7
2022-11-14T05:44:16.824Z,7
2022-11-14T05:47:18.764Z,5.8
2022-11-14T05:50:20.864Z,6.7
2022-11-14T05:53:22.686Z,6.2
2022-11-14T05:56:24.655Z,7
2022-11-14T05:59:26.615Z,7.6
2022-11-14T06:02:28.606Z,7.9
2022-11-14T06:05:30.541Z,7.4
2022-11-14T06:08:32.769Z,8.5
2022-11-14T06:11:34.480Z,7.8
2022-11-14T06:14:36.482Z,8.8
2022-11-14T06:17:38.394Z,10.4
2022-11-14T06:20:40.364Z,9.9
2022-11-14T06:23:42.327Z,11.4
2022-11-14T06:26:44.297Z,11
2022-11-14T06:29:46.259Z,12.1
2022-11-14T06:32:48.230Z,12.5
2022-11-14T06:35:50.203Z,13.3
2022-11-14T06:38:52.184Z,13.4
2022-11-14T06:41:54.176Z,13.2
2022-11-14T06:44:56.162Z,15.1
2022-11-14T06:47:58.199Z,15.4
2022-11-14T06:51:00.090Z,13.6
2022-11-14T06:54:02.060Z,13.7
2022-11-14T06:57:04.016Z,13.9
2022-11-14T07:00:05.982Z,14.5
2022-11-14T07:03:07.969Z,15.3
2022-11-14T07:06:09.909Z,17.3
2022-11-14T07:09:11.866Z,15.9
2022-11-14T07:12:13.815Z,15.6
2022-11-14T07:15:15.778Z,16.3
2022-11-14T07:18:17.752Z,15
2022-11-14T07:21:19.719Z,16.2
2022-11-14T07:24:21.685Z,15.3
2022-11-14T07:27:23.722Z,15.9
2022-11-14T07:30:25.601Z,16.8
2022-11-14T07:33:27.573Z,18.6
2022-11-14T07:36:29.534Z,16.4
2022-11-14T07:39:31.507Z,17.3
2022-11-14T07:42:33.486Z,17.8
2022-11-14T07:45:35.444Z,16.4
2022-11-14T07:48:37.443Z,17
2022-11-14T07:51:39.401Z,15.8
2022-11-14T07:54:41.323Z,17.9
2022-11-14T07:57:48.014Z,17.7
2022-11-14T08:00:45.309Z,17
2022-11-14T08:03:47.256Z,15
2022-11-14T08:06:49.228Z,18.6
2022-11-14T08:09:51.156Z,16.2
2022-11-14T08:13:04.833Z,16.6
2022-11-14T08:15:55.274Z,15.7
2022-11-14T08:18:57.220Z,15.7
2022-11-14T08:21:59.188Z,14.5
2022-11-14T08:25:01.161Z,15.7
2022-11-14T08:28:03.108Z,15
2022-11-14T08:31:05.080Z,16.7
2022-11-14T08:34:07.037Z,15.8
2022-11-14T08:37:09.001Z,17.3
2022-11-14T08:40:11.059Z,15.5
2022-11-14T08:43:12.977Z,16.3
2022-11-14T08:46:14.999Z,16.4
2022-11-14T08:49:16.912Z,16.8
2022-11-14T08:52:18.906Z,17
2022-11-14T08:55:20.847Z,16.1
2022-11-14T08:58:22.810Z,16
2022-11-14T09:01:24.786Z,16.3
2022-11-14T09:04:26.779Z,15.9
2022-11-14T09:07:28.791Z,15.6
2022-11-14T09:10:30.699Z,15.3
2022-11-14T09:13:32.785Z,14.5
2022-11-14T09:16:34.620Z,15.4
2022-11-14T09:19:36.587Z,13.8
2022-11-14T09:22:38.550Z,13.3
2022-11-14T09:25:40.523Z,14.4
2022-11-14T09:28:43.540Z,12.7
2022-11-14T09:31:44.456Z,12.6
2022-11-14T09:34:46.417Z,12.1
2022-11-14T09:37:48.388Z,12.2
2022-11-14T09:40:50.413Z,13.6
2022-11-14T09:43:52.345Z,11.5
2022-11-14T09:46:54.330Z,11.3
2022-11-14T09:49:56.282Z,11.7
2022-11-14T09:52:58.269Z,11.4
2022-11-14T09:56:00.233Z,12.2
2022-11-14T09:59:02.195Z,13
2022-11-14T10:02:04.203Z,10.9
2022-11-14T10:05:06.124Z,11.4
2022-11-14T10:08:08.082Z,11.2
2022-11-14T10:11:10.045Z,10.9
2022-11-14T10:14:12.028Z,11.2
2022-11-14T10:17:13.971Z,10
2022-11-14T10:20:15.949Z,9.5
2022-11-14T10:23:17.912Z,10.9
2022-11-14T10:26:19.900Z,10.4
2022-11-14T10:29:21.859Z,9.5
2022-11-14T10:32:23.839Z,10
2022-11-14T10:35:26.576Z,9.5
2022-11-14T10:38:27.913Z,9.8
2022-11-14T10:41:50.294Z,10.5
2022-11-14T10:44:31.702Z,9.2
2022-11-14T10:47:33.676Z,9.1
2022-11-14T10:50:35.633Z,9.3
2022-11-14T10:53:37.641Z,10
2022-11-14T10:56:39.576Z,9.4
2022-11-14T10:59:41.530Z,9.3
2022-11-14T11:02:43.509Z,9.5
2022-11-14T11:05:45.490Z,9.7
2022-11-14T11:08:47.580Z,9.6
2022-11-14T11:11:49.398Z,8.3
2022-11-14T11:14:51.367Z,10.3
2022-11-14T11:17:53.299Z,8.2
2022-11-14T11:20:55.324Z,8.7
2022-11-14T11:23:57.232Z,8.2
2022-11-14T11:26:59.231Z,9
2022-11-14T11:30:01.190Z,8.3
2022-11-14T11:33:03.137Z,9.7
2022-11-14T11:36:05.106Z,8.7
2022-11-14T11:39:07.073Z,8.6
2022-11-14T11:42:10.391Z,9.1
2022-11-14T11:45:11.006Z,7.9
2022-11-14T11:48:12.990Z,7.9
2022-11-14T11:51:14.922Z,7
2022-11-14T11:54:16.896Z,7.8
2022-11-14T11:57:21.822Z,7.7
2022-11-14T12:00:20.855Z,8.7
2022-11-14T12:03:22.878Z,7.7
2022-11-14T12:06:24.783Z,7.2
2022-11-14T12:09:37.266Z,7.4
2022-11-14T12:12:28.683Z,6.9
2022-11-14T12:15:30.665Z,6.4
2022-11-14T12:18:32.628Z,7.3
2022-11-14T12:21:34.611Z,6.6
2022-11-14T12:24:36.572Z,7
2022-11-14T12:27:38.583Z,5.7
2022-11-14T12:30:40.480Z,6.4
2022-11-14T12:33:42.444Z,5.8
2022-11-14T12:36:44.381Z,6
2022-11-14T12:39:46.353Z,6.4
2022-11-14T12:42:48.322Z,5.6
2022-11-14T12:45:50.278Z,5.5
2022-11-14T12:48:52.265Z,5.5
2022-11-14T12:51:54.237Z,5.3
2022-11-14T12:54:56.416Z,4.9
2022-11-14T12:57:58.189Z,4.6
2022-11-14T13:01:00.263Z,4.5
2022-11-14T13:04:02.108Z,5.6
2022-11-14T13:07:04.083Z,4.9
2022-11-14T13:10:06.051Z,4.8
2022-11-14T13:13:08.005Z,5.7
2022-11-14T13:16:09.973Z,4.3
2022-11-14T13:19:11.931Z,4.3
2022-11-14T13:22:13.879Z,5.8
2022-11-14T13:25:15.846Z,4.8
2022-11-14T13:28:24.680Z,4.8
2022-11-14T13:31:19.945Z,5.1
2022-11-14T13:34:21.725Z,4.6
2022-11-14T13:37:23.678Z,5
2022-11-14T13:40:25.643Z,5.2
2022-11-14T13:43:27.660Z,4.9
2022-11-14T13:46:29.592Z,5
2022-11-14T13:49:31.562Z,4.6
2022-11-14T13:52:33.517Z,5.4
2022-11-14T13:55:35.472Z,5.7
2022-11-14T13:58:37.448Z,5.6
2022-11-14T14:01:39.432Z,5.6
2022-11-14T14:04:41.367Z,5.6
2022-11-14T14:07:43.317Z,5.5
2022-11-14T14:10:45.283Z,5.6
2022-11-14T14:13:51.095Z,5.4
2022-11-14T14:16:49.225Z,5.8
2022-11-14T14:19:51.216Z,5.6
2022-11-14T14:22:53.153Z,5.6
2022-11-14T14:25:55.113Z,4.5
2022-11-14T14:28:57.097Z,5.1
2022-11-14T14:31:59.050Z,4.6
2022-11-14T14:35:01.032Z,4.9
2022-11-14T14:38:03.010Z,4
2022-11-14T14:41:05.062Z,4.6
2022-11-14T14:44:06.918Z,4.3
2022-11-14T14:47:08.889Z,4.6
2022-11-14T14:50:10.884Z,3.7
2022-11-14T14:53:12.845Z,3.9
2022-11-14T14:56:14.831Z,3.7
2022-11-14T14:59:16.803Z,3.9
2022-11-14T15:02:18.751Z,3.9
2022-11-14T15:05:20.719Z,3.5
2022-11-14T15:08:22.663Z,3.8
2022-11-14T15:11:27.328Z,3.9
2022-11-14T15:14:26.613Z,3.8
2022-11-14T15:17:31.668Z,3.3
2022-11-14T15:20:30.512Z,3.1
2022-11-14T15:23:32.478Z,3.5
2022-11-14T15:26:34.421Z,3
2022-11-14T15:29:36.387Z,3.4
2022-11-14T15:32:38.344Z,2.9
2022-11-14T15:35:40.347Z,2.9
2022-11-14T15:38:44.843Z,2.6
2022-11-14T15:39:56.591Z,2.6
2022-11-14T15:41:44.210Z,3.3
2022-11-14T15:44:46.168Z,3.3
2022-11-14T15:47:48.132Z,2.8
2022-11-14T15:50:50.091Z,3.1
2022-11-14T15:53:52.059Z,2.9
2022-11-14T15:56:54.002Z,3.1
2022-11-14T15:59:55.971Z,3.2
2022-11-14T16:02:57.934Z,3.1
2022-11-14T16:05:59.938Z,3.1
2022-11-14T16:09:01.880Z,3.1
2022-11-14T16:12:03.833Z,2.9
2022-11-14T16:15:05.815Z,2.8
2022-11-14T16:18:07.789Z,2.6
2022-11-14T16:21:09.746Z,2.7
2022-11-14T16:24:11.701Z,2.7
2022-11-14T16:27:13.657Z,3.4
2022-11-14T16:30:15.604Z,3.4
2022-11-14T16:33:17.565Z,3.3
2022-11-14T16:36:19.534Z,3.8
2022-11-14T16:39:21.492Z,4.2
2022-11-14T16:42:23.440Z,3.4
2022-11-14T16:45:25.424Z,5
2022-11-14T16:48:27.376Z,4.2
2022-11-14T16:51:46.550Z,5.8
2022-11-14T16:54:31.317Z,5.5
2022-11-14T16:57:33.271Z,4.5
2022-11-14T17:00:35.246Z,4.9
2022-11-14T17:03:37.187Z,5.8
2022-11-14T17:06:39.158Z,4.3
2022-11-14T17:09:41.126Z,4.6
2022-11-14T17:12:43.071Z,5
2022-11-14T17:15:45.040Z,4.7
2022-11-14T17:18:47.005Z,5.1
2022-11-14T17:21:48.969Z,5.2
2022-11-14T17:24:50.928Z,4.6
2022-11-14T17:27:52.900Z,5.1
2022-11-14T17:30:54.867Z,4.6
2022-11-14T17:33:56.838Z,4.4
2022-11-14T17:36:58.803Z,4.5
2022-11-14T17:40:00.793Z,4.3
2022-11-14T17:43:02.751Z,4.7
2022-11-14T17:46:04.710Z,4.5
2022-11-14T17:49:06.705Z,4.5
2022-11-14T17:52:08.658Z,4.2
2022-11-14T17:55:10.633Z,4.6
2022-11-14T17:58:12.583Z,5
2022-11-14T18:01:14.633Z,4.4
2022-11-14T18:04:16.551Z,4.1
2022-11-14T18:07:18.554Z,4.1
2022-11-14T18:10:20.534Z,4.2
2022-11-14T18:13:22.437Z,4.4
2022-11-14T18:16:24.385Z,4
2022-11-14T18:19:26.346Z,4.2
2022-11-14T18:22:28.307Z,4.3
2022-11-14T18:25:30.273Z,3.9
2022-11-14T18:28:32.567Z,4.6
2022-11-14T18:31:34.202Z,4.2
2022-11-14T18:34:36.174Z,4.3
2022-11-14T18:37:38.132Z,4.5
2022-11-14T18:40:40.115Z,4.4
2022-11-14T18:43:42.082Z,5.8
2022-11-14T18:46:44.044Z,6.1
2022-11-14T18:49:46.011Z,8.6
2022-11-14T18:52:47.978Z,7.7
2022-11-14T18:55:50.096Z,6.1
2022-11-14T18:58:51.917Z,5.9
2022-11-14T19:01:53.922Z,6.6
2022-11-14T19:04:55.841Z,5.8
2022-11-14T19:07:57.810Z,5.6
2022-11-14T19:10:59.786Z,14.4
2022-11-14T19:14:01.758Z,8
2022-11-14T19:17:03.698Z,6.8
2022-11-14T19:20:08.841Z,7.1
2022-11-14T19:23:07.639Z,6.4
2022-11-14T19:26:09.631Z,5.8
2022-11-14T19:29:11.557Z,5.5
2022-11-14T19:32:13.533Z,5.6
2022-11-14T19:35:20.215Z,5.7
2022-11-14T19:38:17.463Z,6.1
2022-11-14T19:41:19.453Z,5.5
2022-11-14T19:44:21.398Z,5.5
2022-11-14T19:47:23.344Z,4.7
2022-11-14T19:50:25.308Z,4.6
2022-11-14T19:53:27.335Z,6.6
2022-11-14T19:56:29.254Z,5.5
2022-11-14T19:59:31.249Z,6.7
2022-11-14T20:02:33.196Z,5.8
2022-11-14T20:05:35.168Z,6.6
2022-11-14T20:08:37.130Z,6
2022-11-14T20:11:39.095Z,5.2
2022-11-14T20:14:41.065Z,5.9
2022-11-14T20:17:43.047Z,5.1
2022-11-14T20:20:45.007Z,5.5
2022-11-14T20:23:46.988Z,5.2
2022-11-14T20:26:48.938Z,7.2
2022-11-14T20:29:50.918Z,6.6
2022-11-14T20:32:52.867Z,6.3
2022-11-14T20:35:54.887Z,6.7
2022-11-14T20:38:56.866Z,6.3
2022-11-14T20:41:58.820Z,5.7
2022-11-14T20:45:00.746Z,6.4
2022-11-14T20:48:02.725Z,6.5
2022-11-14T20:51:04.676Z,7.5
2022-11-14T20:54:06.682Z,7.5
2022-11-14T20:57:08.647Z,7.3
2022-11-14T21:00:10.585Z,7.4
2022-11-14T21:03:12.585Z,6.3
2022-11-14T21:06:14.515Z,6.6
2022-11-14T21:09:16.479Z,6.2
2022-11-14T21:12:18.460Z,6
2022-11-14T21:15:20.420Z,6.1
2022-11-14T21:18:22.388Z,5.8
2022-11-14T21:21:24.344Z,6.6
2022-11-14T21:24:26.318Z,7.9
2022-11-14T21:27:28.290Z,8
2022-11-14T21:30:30.237Z,6.4
2022-11-14T21:33:32.365Z,6.6
2022-11-14T21:36:45.752Z,6.1
2022-11-14T21:39:36.172Z,8.3
2022-11-14T21:42:38.103Z,6.8
2022-11-14T21:45:40.092Z,8.4
2022-11-14T21:48:42.041Z,7.1
2022-11-14T21:51:44.003Z,7.4
2022-11-14T21:54:45.976Z,7
2022-11-14T21:57:47.932Z,7.5
2022-11-14T22:00:49.880Z,7.3
2022-11-14T22:03:51.837Z,8.9
2022-11-14T22:06:53.809Z,7.8
2022-11-14T22:09:55.767Z,7
2022-11-14T22:12:57.732Z,8
2022-11-14T22:15:59.695Z,7
2022-11-14T22:19:05.192Z,7.4
2022-11-14T22:22:03.607Z,7.8
2022-11-14T22:25:05.567Z,8.2
2022-11-14T22:28:07.523Z,8.8
2022-11-14T22:31:09.506Z,7.3
2022-11-14T22:34:11.478Z,7.7
2022-11-14T22:37:13.472Z,6.2
2022-11-14T22:40:15.409Z,6.6
2022-11-14T22:43:17.360Z,7.4
2022-11-14T22:46:19.327Z,8.5
2022-11-14T22:49:21.481Z,8.1
2022-11-14T22:52:23.246Z,7.7
2022-11-14T22:55:25.221Z,7.7
2022-11-14T22:58:27.180Z,8.1
2022-11-14T23:01:29.145Z,8.2
2022-11-14T23:04:31.092Z,8.6
2022-11-14T23:07:33.086Z,7.5
2022-11-14T23:10:35.004Z,6.8
2022-11-14T23:13:36.973Z,6.3
2022-11-14T23:16:38.936Z,6.8
2022-11-14T23:19:40.909Z,7.4
2022-11-14T23:22:42.858Z,7.1
2022-11-14T23:25:44.852Z,6.9
2022-11-14T23:28:46.784Z,7.6
2022-11-14T23:31:48.746Z,8.1
2022-11-14T23:34:50.791Z,8.2
2022-11-14T23:37:52.675Z,8
2022-11-14T23:40:54.625Z,7.6
2022-11-14T23:43:56.589Z,6.3
2022-11-14T23:46:58.554Z,7
2022-11-14T23:50:00.570Z,7.6
2022-11-14T23:53:02.502Z,7.3
2022-11-14T23:56:04.455Z,6.3
2022-11-14T23:59:06.418Z,6.8
